Time;durP1;ratioP1;P1;durP2;ratioP2;P2;SDS_P1;SDS_P2;PMS_P1;PMS_P2;Temp;Humidity;BMP_temperature;BMP_pressure;BME280_temperature;BME280_humidity;BME280_pressure;Samples;Min_cycle;Max_cycle;Signal;HPM_P1;HPM_P2
2022/06/03 00:01:59;;;;;;;;;;;;;;;17.43;57.52;96435.69;5037571;28;19921;-78
2022/06/03 00:04:56;;;;;;;130.40;43.00;;;;;;;17.45;57.17;96431.44;5036089;28;19990;-78
2022/06/03 00:07:29;;;;;;;;;;;;;;;17.48;57.12;96424.38;5030121;28;19933;-77
2022/06/03 00:10:06;;;;;;;;;;;;;;;17.48;57.56;96422.44;5035024;28;19998;-76
2022/06/03 00:12:44;;;;;;;;;;;;;;;17.47;57.86;96420.84;5052569;28;20376;-77
2022/06/03 00:15:17;;;;;;;;;;;;;;;17.43;57.78;96417.19;5053533;28;19928;-77
2022/06/03 00:17:49;;;;;;;;;;;;;;;17.45;58.21;96420.41;5054210;28;19930;-77
2022/06/03 00:20:25;;;;;;;;;;;;;;;17.46;58.31;96427.50;5053211;28;19925;-77
2022/06/03 00:23:02;;;;;;;;;;;;;;;17.47;59.44;96426.34;5053757;28;20311;-76
2022/06/03 00:25:44;;;;;;;;;;;;;;;17.48;59.70;96418.88;5053251;28;19997;-76
2022/06/03 00:28:16;;;;;;;;;;;;;;;17.44;58.90;96413.31;5052021;28;19925;-76
2022/06/03 00:30:50;;;;;;;;;;;;;;;17.38;58.28;96420.28;5052805;28;19929;-77
2022/06/03 00:33:31;;;;;;;;;;;;;;;17.33;57.70;96417.81;5052790;28;19925;-76
2022/06/03 00:36:04;;;;;;;;;;;;;;;17.33;58.24;96417.81;5052937;28;19932;-77
2022/06/03 00:38:56;;;;;;;;;;;;;;;17.29;57.97;96411.41;5052021;28;19932;-78
2022/06/03 00:41:26;;;;;;;;;;;;;;;17.30;58.23;96410.25;5042548;28;19926;-76
2022/06/03 00:44:00;;;;;;;;;;;;;;;17.29;58.29;96405.13;5032170;28;19925;-76
2022/06/03 00:46:40;;;;;;;;;;;;;;;17.27;57.83;96408.22;5032518;28;19925;-75
2022/06/03 00:49:12;;;;;;;;;;;;;;;17.25;57.59;96405.03;5034102;28;19932;-75
2022/06/03 00:51:52;;;;;;;;;;;;;;;17.21;57.05;96404.16;5034132;28;19929;-74
2022/06/03 00:54:32;;;;;;;;;;;;;;;17.19;57.19;96398.22;5034828;28;19925;-76
2022/06/03 00:57:16;;;;;;;;;;;;;;;17.15;57.35;96400.09;5034722;28;19925;-77
2022/06/03 00:59:54;;;;;;;;;;;;;;;17.14;57.53;96388.28;5026921;28;20361;-78
2022/06/03 01:02:27;;;;;;;;;;;;;;;17.12;58.33;96382.34;5033866;28;19925;-77
2022/06/03 01:05:01;;;;;;;;;;;;;;;17.12;58.45;96367.78;5034662;28;20414;-77
2022/06/03 01:07:35;;;;;;;;;;;;;;;17.06;58.24;96369.22;5034013;28;19925;-77
2022/06/03 01:10:12;;;;;;;;;;;;;;;17.04;58.33;96383.34;5034468;28;20411;-78
2022/06/03 01:12:56;;;;;;;;;;;;;;;17.06;58.63;96380.22;5052099;28;19978;-76
2022/06/03 01:15:29;;;;;;;;;;;;;;;17.08;60.17;96377.94;5046123;28;20402;-77
2022/06/03 01:18:05;;;;;;;;;;;;;;;17.02;59.60;96379.34;5053365;28;19929;-76
2022/06/03 01:20:34;;;;;;;;;;;;;;;16.98;59.81;96372.97;5055747;28;20617;-78
2022/06/03 01:23:18;;;;;;;;;;;;;;;16.97;59.90;96376.91;5056977;28;20455;-77
2022/06/03 01:26:00;;;;;;;;;;;;;;;16.96;59.99;96381.56;5056981;28;19924;-79
2022/06/03 01:28:47;;;;;;;;;;;;;;;16.98;60.65;96383.97;5055245;28;19924;-77
2022/06/03 01:31:30;;;;;;;;;;;;;;;16.95;60.84;96369.78;5050432;28;19924;-77
2022/06/03 01:34:03;;;;;;;;;;;;;;;16.95;60.90;96368.97;5054449;28;19932;-77
2022/06/03 01:36:49;;;;;;;;;;;;;;;16.93;61.11;96369.34;5053940;28;19924;-77
2022/06/03 01:39:39;;;;;;;;;;;;;;;16.93;61.90;96377.59;5054344;28;19997;-76
2022/06/03 01:42:24;;;;;;;;;;;;;;;16.92;62.62;96373.25;5053330;28;19928;-78
2022/06/03 01:45:02;;;;;;;;;;;;;;;16.93;63.05;96371.31;5054945;28;20101;-76
2022/06/03 01:47:59;;;;;;;;;;;;;;;16.91;63.13;96374.41;5053928;28;20402;-77
2022/06/03 01:50:37;;;;;;;;;;;;;;;16.89;62.60;96376.72;5011022;28;19968;-77
2022/06/03 01:53:18;;;;;;;;;;;;;;;16.90;62.07;96375.56;5010317;28;19932;-78
2022/06/03 01:56:02;;;;;;;;;;;;;;;16.89;61.49;96376.72;5010668;28;19998;-79
2022/06/03 01:58:48;;;;;;;;;;;;;;;16.85;61.63;96369.53;4988821;28;19947;-76
2022/06/03 02:01:23;;;;;;;;;;;;;;;16.81;61.69;96363.16;5033136;28;19925;-76
2022/06/03 02:03:57;;;;;;;;;;;;;;;16.78;61.92;96367.44;5037250;28;20004;-77
2022/06/03 02:06:58;;;;;;;;;;;;;;;16.68;62.98;96373.44;5036043;28;19932;-77
2022/06/03 02:10:01;;;;;;;;;;;;;;;16.60;63.74;96366.16;5029616;28;19975;-81
2022/06/03 02:12:36;;;;;;;;;;;;;;;16.59;63.64;96364.56;5037332;28;19925;-77
2022/06/03 02:15:17;;;;;;;;;;;;;;;16.55;63.51;96356.25;5036773;28;19932;-76
2022/06/03 02:17:57;;;;;;;;;;;;;;;16.54;63.91;96364.84;5034209;28;19925;-79
2022/06/03 02:20:34;;;;;;;;;;;;;;;16.54;64.36;96359.34;5035771;28;19966;-75
2022/06/03 02:23:11;;;;;;;;;;;;;;;16.53;63.53;96371.50;5037357;28;20296;-76
2022/06/03 02:25:49;;;;;;;;;;;;;;;16.48;63.74;96366.28;5036439;28;19925;-76
2022/06/03 02:28:34;;;;;;;;;;;;;;;16.39;63.90;96372.75;5035879;28;20300;-76
2022/06/03 02:31:15;;;;;;;;;;;;;;;16.32;64.19;96374.53;5037349;28;19925;-77
2022/06/03 02:33:51;;;;;;;;;;;;;;;16.23;64.98;96371.94;5036729;28;19947;-75
2022/06/03 02:36:41;;;;;;;;;;;;;;;16.16;65.28;96369.81;5035925;28;19925;-76
2022/06/03 02:39:14;;;;;;;;;;;;;;;16.14;66.04;96374.09;5035650;28;20296;-76
2022/06/03 02:41:54;;;;;;;;;;;;;;;16.10;66.04;96373.97;5037121;28;19925;-76
2022/06/03 02:44:42;;;;;;;;;;;;;;;16.08;65.65;96365.31;5036708;28;19925;-77
2022/06/03 02:47:42;;;;;;;;;;;;;;;16.06;65.08;96370.34;5037297;28;19936;-76
2022/06/03 02:50:23;;;;;;;;;;;;;;;16.02;64.96;96383.16;5039749;28;19932;-76
2022/06/03 02:53:13;;;;;;;;;;;;;;;15.97;65.75;96388.91;5040080;28;19928;-78
2022/06/03 02:55:56;;;;;;;;;;;;;;;15.98;65.42;96381.50;5039511;28;19936;-77
2022/06/03 02:58:34;;;;;;;;;;;;;;;15.96;65.81;96383.78;5038463;28;20369;-77
2022/06/03 03:01:21;;;;;;;;;;;;;;;15.94;65.68;96380.59;5038621;28;19932;-77
2022/06/03 03:04:00;;;;;;;;;;;;;;;15.94;65.38;96383.34;5033360;28;19925;-75
2022/06/03 03:06:50;;;;;;;;;;;;;;;15.91;65.84;96382.88;5037281;28;19932;-75
2022/06/03 03:09:31;;;;;;;;;;;;;;;15.88;66.99;96378.13;5034371;28;19925;-77
2022/06/03 03:12:18;;;;;;;;;;;;;;;15.88;67.70;96367.13;5037268;28;19929;-75
2022/06/03 03:14:55;;;;;;;;;;;;;;;15.88;68.62;96356.16;5033406;28;19986;-77
2022/06/03 03:17:39;;;;;;;;;;;;;;;15.90;67.70;96353.84;5035337;28;19925;-77
2022/06/03 03:20:24;;;;;;;;;;;;;;;15.90;66.09;96367.56;5036290;28;19925;-78
2022/06/03 03:23:03;;;;;;;;;;;;;;;15.88;65.76;96361.66;5037926;28;19925;-75
2022/06/03 03:25:35;;;;;;;;;;;;;;;15.87;65.95;96360.06;5038418;28;19929;-76
2022/06/03 03:28:16;;;;;;;;;;;;;;;15.88;65.83;96367.13;5036034;28;19925;-77
2022/06/03 03:30:47;;;;;;;;;;;;;;;15.87;65.98;96371.03;5036178;28;19925;-76
2022/06/03 03:33:27;;;;;;;;;;;;;;;15.89;66.56;96374.22;5037760;28;19925;-76
2022/06/03 03:36:01;;;;;;;;;;;;;;;15.88;66.23;96378.13;5036965;28;19932;-75
2022/06/03 03:38:49;;;;;;;;;;;;;;;15.88;65.69;96382.81;5036597;28;19925;-76
2022/06/03 03:41:36;;;;;;;;;;;;;;;15.85;65.77;96389.78;5034985;28;19932;-77
2022/06/03 03:44:17;;;;;;;;;;;;;;;15.83;65.73;96392.09;5036576;28;19926;-77
2022/06/03 03:47:08;;;;;;;;;;;;;;;15.82;66.53;96390.50;5035712;28;19925;-77
2022/06/03 03:49:55;;;;;;;;;;;;;;;15.82;68.11;96395.22;5035252;28;19935;-79
2022/06/03 03:52:36;;;;;;;;;;;;;;;15.84;67.70;96393.69;5050598;28;19925;-77
2022/06/03 03:55:32;;;;;;;;;;;;;;;15.84;66.91;96393.69;5055239;28;19925;-77
2022/06/03 03:58:16;;;;;;;;;;;;;;;15.85;67.01;96405.47;5013610;28;19926;-75
2022/06/03 04:01:09;;;;;;;;;;;;;;;15.86;67.21;96402.38;5050868;28;19924;-76
2022/06/03 04:03:44;;;;;;;;;;;;;;;15.90;67.47;96397.78;5056528;28;19932;-75
2022/06/03 04:06:33;;;;;;;;;;;;;;;15.91;68.29;96393.09;5057614;28;19925;-74
2022/06/03 04:12:21;;;;;;;157.23;42.13;;;;;;;15.97;68.54;96396.38;5099117;27;19924;-77
2022/06/03 04:15:02;;;;;;;;;;;;;;;15.95;68.77;96404.16;5095191;27;20388;-77
2022/06/03 04:18:08;;;;;;;143.45;42.72;;;;;;;15.96;68.60;96400.28;5094908;27;20461;-77
2022/06/03 04:20:48;;;;;;;;;;;;;;;15.91;68.27;96393.88;5097420;27;20036;-75
2022/06/03 04:23:54;;;;;;;159.57;44.08;;;;;;;15.91;68.28;96396.63;5095128;27;20468;-76
2022/06/03 04:26:35;;;;;;;;;;;;;;;15.96;68.55;96389.28;5094313;27;20115;-76
2022/06/03 04:32:16;;;;;;;;;;;;;;;15.99;68.28;96391.34;5094794;27;19981;-77
2022/06/03 04:34:53;;;;;;;;;;;;;;;16.04;68.24;96394.63;5095499;27;20403;-76
2022/06/03 04:38:04;;;;;;;140.67;42.63;;;;;;;16.11;68.16;96391.25;5094592;27;20471;-75
2022/06/03 04:41:17;;;;;;;147.20;42.17;;;;;;;16.14;68.03;96385.06;5093536;27;20447;-76
2022/06/03 04:44:10;;;;;;;;;;;;;;;16.15;68.22;96381.16;5093028;27;20048;-77
2022/06/03 04:46:54;;;;;;;;;;;;;;;16.16;68.34;96389.03;5093951;27;19921;-75
2022/06/03 04:49:43;;;;;;;;;;;;;;;16.21;68.65;96384.44;5095288;27;19921;-76
2022/06/03 04:52:32;;;;;;;;;;;;;;;16.24;67.58;96384.56;5095535;27;19927;-77
2022/06/03 04:55:16;;;;;;;;;;;;;;;16.26;68.22;96395.19;5092979;27;20429;-76
2022/06/03 04:57:57;;;;;;;;;;;;;;;16.25;68.88;96397.13;5080767;27;19925;-78
2022/06/03 05:00:29;;;;;;;;;;;;;;;16.30;68.54;96399.63;5091680;27;20618;-76
2022/06/03 05:03:24;;;;;;;;;;;;;;;16.37;68.48;96404.50;5089650;27;19940;-76
2022/06/03 05:06:10;;;;;;;;;;;;;;;16.26;68.22;96409.72;5090592;27;19936;-75
2022/06/03 05:08:51;;;;;;;;;;;;;;;16.30;68.36;96398.81;5091069;27;19930;-75
2022/06/03 05:11:29;;;;;;;;;;;;;;;16.32;69.10;96394.56;5106113;27;19924;-75
2022/06/03 05:14:14;;;;;;;;;;;;;;;16.37;69.31;96399.78;5112225;27;19930;-75
2022/06/03 05:17:00;;;;;;;;;;;;;;;16.33;69.30;96398.88;5103759;28;19928;-75
2022/06/03 05:19:46;;;;;;;;;;;;;;;16.43;69.77;96392.88;5109453;28;19924;-77
2022/06/03 05:22:29;;;;;;;;;;;;;;;16.44;69.98;96393.66;5103157;28;20405;-75
2022/06/03 05:25:04;;;;;;;;;;;;;;;16.46;70.25;96390.56;5096939;28;19928;-77
2022/06/03 05:27:54;;;;;;;;;;;;;;;16.48;70.64;96391.00;5076408;28;19990;-76
2022/06/03 05:30:51;;;;;;;;;;;;;;;16.61;70.85;96392.53;5073980;28;19924;-75
2022/06/03 05:33:36;;;;;;;;;;;;;;;16.66;70.95;96386.75;5076188;28;20011;-76
2022/06/03 05:36:18;;;;;;;;;;;;;;;16.69;71.18;96380.53;5076230;28;20935;-77
2022/06/03 05:39:04;;;;;;;;;;;;;;;16.75;71.39;96370.09;5077128;28;19920;-76
2022/06/03 05:44:40;;;;;;;;;;;;;;;16.96;71.83;96370.56;5097028;28;20021;-77
2022/06/03 05:47:09;;;;;;;;;;;;;;;17.10;72.08;96365.38;5097856;28;19999;-78
2022/06/03 05:49:44;;;;;;;;;;;;;;;17.22;72.34;96368.00;5096768;28;20003;-76
2022/06/03 05:52:24;;;;;;;;;;;;;;;17.22;71.73;96368.00;5095450;28;19930;-77
2022/06/03 05:55:06;;;;;;;;;;;;;;;17.21;72.17;96377.41;5097416;28;19932;-77
2022/06/03 05:57:38;;;;;;;;;;;;;;;17.30;71.97;96374.47;5095380;28;20000;-77
2022/06/03 06:00:21;;;;;;;;;;;;;;;17.37;72.25;96374.59;5094573;27;19924;-76
2022/06/03 06:02:53;;;;;;;;;;;;;;;17.43;72.18;96375.13;5095347;28;19936;-78
2022/06/03 06:05:29;;;;;;;;;;;;;;;17.51;72.27;96379.63;5095775;28;20011;-76
2022/06/03 06:08:13;;;;;;;;;;;;;;;17.59;71.89;96372.28;5094882;28;19928;-76
2022/06/03 06:10:43;;;;;;;;;;;;;;;17.65;71.71;96384.63;5092938;28;19924;-74
2022/06/03 06:13:21;;;;;;;;;;;;;;;17.69;71.73;96380.75;5093026;28;19924;-74
2022/06/03 06:15:56;;;;;;;;;;;;;;;17.83;71.60;96373.97;5094191;28;19989;-78
2022/06/03 06:18:26;;;;;;;;;;;;;;;17.86;71.27;96378.78;5094707;28;19924;-77
2022/06/03 06:21:03;;;;;;;;;;;;;;;17.88;71.51;96370.94;5094137;28;19924;-76
2022/06/03 06:23:37;;;;;;;;;;;;;;;17.93;71.45;96368.69;5092635;28;19924;-77
2022/06/03 06:26:16;;;;;;;;;;;;;;;18.00;71.38;96363.28;5092731;28;19931;-77
2022/06/03 06:28:58;;;;;;;;;;;;;;;18.08;71.04;96352.41;5094309;28;19924;-77
2022/06/03 06:31:39;;;;;;;;;;;;;;;18.20;71.84;96357.75;5091647;28;20597;-76
2022/06/03 06:34:22;;;;;;;;;;;;;;;18.36;71.67;96352.88;5091437;28;19981;-78
2022/06/03 06:37:08;;;;;;;;;;;;;;;18.60;71.12;96356.44;5093901;28;19924;-78
2022/06/03 06:39:49;;;;;;;;;;;;;;;18.78;70.76;96357.53;5093570;28;20006;-78
2022/06/03 06:42:26;;;;;;;;;;;;;;;18.99;70.05;96357.03;5093424;28;19928;-77
2022/06/03 06:45:02;;;;;;;;;;;;;;;19.13;69.46;96367.50;5093377;28;19928;-77
2022/06/03 06:47:31;;;;;;;;;;;;;;;19.18;68.97;96369.94;5091886;28;20337;-78
2022/06/03 06:50:13;;;;;;;138.60;43.13;;;;;;;19.31;68.45;96368.53;5091629;28;20446;-76
2022/06/03 06:52:55;;;;;;;121.35;44.40;;;;;;;19.37;68.74;96382.78;5093226;28;20040;-79
2022/06/03 06:55:28;;;;;;;;;;;;;;;19.37;68.87;96375.34;5093283;28;23720;-79
2022/06/03 06:58:00;;;;;;;;;;;;;;;19.37;67.80;96377.28;5083257;28;20886;-83
2022/06/03 07:03:40;;;;;;;;;;;;;;;19.40;67.62;96377.34;5060895;22;20029;-85
2022/06/03 07:06:15;;;;;;;137.77;43.05;;;;;;;19.48;67.17;96379.03;5020980;28;20555;-81
2022/06/03 07:08:43;;;;;;;;;;;;;;;19.53;67.02;96380.66;5045466;28;20133;-83
2022/06/03 07:11:13;;;;;;;;;;;;;;;19.64;68.06;96376.09;5037241;28;19997;-76
2022/06/03 07:13:42;;;;;;;;;;;;;;;19.71;67.67;96370.66;5057476;28;19999;-81
2022/06/03 07:16:10;;;;;;;;;;;;;;;19.81;67.45;96369.19;5056749;28;19997;-82
2022/06/03 07:24:16;;;;;;;;;;;;;;;19.91;65.85;96367.72;5194878;22;20284;-78
2022/06/03 07:26:46;;;;;;;;;;;;;;;19.97;66.33;96360.66;5031042;28;19987;-78
2022/06/03 07:29:16;;;;;;;;;;;;;;;19.98;65.90;96367.78;5030311;28;20308;-78
2022/06/03 07:31:47;;;;;;;;;;;;;;;20.01;65.83;96362.31;5030915;28;20020;-77
2022/06/03 07:34:17;;;;;;;;;;;;;;;20.07;66.30;96348.94;5030565;28;19925;-79
2022/06/03 07:36:46;;;;;;;;;;;;;;;20.07;66.40;96343.41;5030753;28;20338;-77
2022/06/03 07:39:30;;;;;;;;;;;;;;;20.13;66.33;96327.25;5029181;28;20479;-77
2022/06/03 07:42:02;;;;;;;;;;;;;;;20.20;66.03;96321.78;5031041;28;20464;-77
2022/06/03 07:44:35;;;;;;;;;;;;;;;20.17;66.33;96325.34;5030263;28;19921;-76
2022/06/03 07:47:03;;;;;;;;;;;;;;;20.23;66.37;96318.28;5030388;28;19944;-77
2022/06/03 07:49:32;;;;;;;;;;;;;;;20.33;66.47;96328.63;5029859;28;20246;-76
2022/06/03 07:52:02;;;;;;;;;;;;;;;20.37;66.88;96321.16;5036364;28;19928;-77
2022/06/03 07:54:30;;;;;;;;;;;;;;;20.53;66.66;96318.97;5050164;28;19978;-77
2022/06/03 07:57:00;;;;;;;;;;;;;;;20.55;65.81;96313.81;5035395;28;19997;-77
2022/06/03 07:59:30;;;;;;;;;;;;;;;20.69;66.09;96312.34;5029548;28;20456;-77
2022/06/03 08:01:57;;;;;;;;;;;;;;;20.80;65.71;96314.00;5030420;28;19989;-76
2022/06/03 08:04:28;;;;;;;;;;;;;;;20.96;65.04;96313.72;5029741;28;19989;-77
2022/06/03 08:12:28;;;;;;;19.77;7.63;;;;;;;22.71;59.89;96330.06;5028465;28;20483;-77
2022/06/03 08:14:55;;;;;;;142.23;42.40;;;;;;;23.28;56.96;96327.19;5028573;28;20407;-77
2022/06/03 08:17:23;;;;;;;28.40;17.00;;;;;;;23.63;55.69;96332.66;5029174;28;20045;-76
2022/06/03 08:19:50;;;;;;;105.30;33.70;;;;;;;23.72;56.06;96326.69;5029366;28;20473;-77
2022/06/03 08:22:24;;;;;;;11.37;10.33;;;;;;;23.72;57.02;96332.25;5029512;28;20068;-76
2022/06/03 08:24:56;;;;;;;131.07;40.60;;;;;;;23.67;59.41;96329.88;5029633;28;20480;-76
2022/06/03 08:27:27;;;;;;;160.13;45.53;;;;;;;23.69;55.90;96331.03;5029350;28;20049;-78
2022/06/03 08:29:59;;;;;;;;;;;;;;;23.83;53.90;96324.63;5029441;28;20414;-79
2022/06/03 08:32:31;;;;;;;91.30;28.10;;;;;;;24.05;54.93;96322.50;5028983;28;20947;-79
2022/06/03 08:35:00;;;;;;;;;;;;;;;24.15;55.68;96329.22;5029726;28;20454;-78
2022/06/03 08:37:32;;;;;;;;;;;;;;;24.17;58.16;96324.84;5029779;28;20481;-79
2022/06/03 08:40:01;;;;;;;;;;;;;;;24.24;55.60;96320.41;5033915;28;20029;-79
2022/06/03 08:42:36;;;;;;;;;;;;;;;24.42;56.28;96312.75;5033794;28;20260;-78
2022/06/03 08:45:23;;;;;;;;;;;;;;;24.45;54.49;96317.50;5015435;28;20410;-78
2022/06/03 08:47:52;;;;;;;;;;;;;;;24.58;54.42;96321.34;5011543;28;19926;-78
2022/06/03 08:50:29;;;;;;;;;;;;;;;24.61;53.30;96311.41;5015756;28;19926;-78
2022/06/03 08:53:01;;;;;;;;;;;;;;;24.63;52.20;96303.44;5016997;28;20902;-78
2022/06/03 08:55:45;;;;;;;;;;;;;;;24.71;51.65;96300.19;5018566;28;21051;-78
2022/06/03 08:58:19;;;;;;;;;;;;;;;24.82;50.67;96299.28;5039446;28;19991;-77
2022/06/03 09:00:51;;;;;;;;;;;;;;;24.96;54.33;96302.72;5038760;28;19928;-77
2022/06/03 09:03:20;;;;;;;;;;;;;;;25.20;51.58;96298.09;5038542;28;20286;-78
2022/06/03 09:05:50;;;;;;;;;;;;;;;25.22;49.39;96297.72;5038878;28;19921;-79
2022/06/03 09:08:23;;;;;;;;;;;;;;;25.38;54.20;96297.13;5037684;28;20300;-78
2022/06/03 09:10:53;;;;;;;;;;;;;;;25.50;50.22;96299.38;5036806;28;19944;-78
2022/06/03 09:13:22;;;;;;;;;;;;;;;25.59;49.54;96301.66;5036616;28;19928;-78
2022/06/03 09:15:50;;;;;;;;;;;;;;;25.71;51.70;96299.09;5025645;28;19928;-78
2022/06/03 09:18:19;;;;;;;;;;;;;;;25.80;48.28;96295.03;5014373;28;19999;-77
2022/06/03 09:20:48;;;;;;;;;;;;;;;25.87;48.50;96289.34;5018018;28;20307;-78
2022/06/03 09:23:17;;;;;;;;;;;;;;;25.94;49.53;96284.44;5016514;28;19921;-79
2022/06/03 09:25:47;;;;;;;;;;;;;;;26.00;46.92;96276.44;5023215;28;19925;-78
2022/06/03 09:28:15;;;;;;;;;;;;;;;26.00;48.25;96288.38;5035826;28;19929;-79
2022/06/03 09:30:41;;;;;;;;;;;;;;;26.14;47.24;96281.78;5036029;28;19997;-78
2022/06/03 09:33:11;;;;;;;;;;;;;;;26.13;47.23;96285.00;5035520;28;19927;-78
2022/06/03 09:35:40;;;;;;;;;;;;;;;26.19;48.74;96289.66;5035895;28;19921;-80
2022/06/03 09:38:07;;;;;;;;;;;;;;;26.34;47.74;96292.25;5034474;28;19998;-79
2022/06/03 09:40:36;;;;;;;;;;;;;;;26.39;46.88;96286.97;5032517;28;19921;-79
2022/06/03 09:43:07;;;;;;;;;;;;;;;26.36;48.31;96287.03;5032523;28;19968;-78
2022/06/03 09:45:34;;;;;;;;;;;;;;;26.45;49.65;96278.94;5032775;28;19921;-78
2022/06/03 09:48:04;;;;;;;;;;;;;;;26.51;47.58;96280.03;5032922;28;19921;-78
2022/06/03 09:50:31;;;;;;;;;;;;;;;26.58;48.94;96274.34;5032766;28;20007;-78
2022/06/03 09:52:59;;;;;;;;;;;;;;;26.62;48.46;96272.25;5032895;28;20012;-77
2022/06/03 09:55:27;;;;;;;;;;;;;;;26.76;47.51;96262.84;5032207;28;20324;-77
2022/06/03 09:57:57;;;;;;;;;;;;;;;26.79;47.89;96257.19;5035599;28;20001;-77
2022/06/03 10:00:28;;;;;;;;;;;;;;;26.85;47.75;96248.31;5032968;28;19928;-77
2022/06/03 10:02:56;;;;;;;;;;;;;;;26.81;45.56;96251.19;5035075;28;19921;-77
2022/06/03 10:05:22;;;;;;;;;;;;;;;26.91;46.22;96249.41;5034806;28;20055;-78
2022/06/03 10:07:52;;;;;;;;;;;;;;;26.97;50.69;96253.28;5037053;28;19940;-77
2022/06/03 10:13:04;;;;;;;;;;;;;;;26.91;45.00;96239.00;5037117;28;20055;-77
2022/06/03 10:15:39;;;;;;;;;;;;;;;26.94;45.90;96240.19;5036602;28;19925;-77
2022/06/03 10:18:09;;;;;;;;;;;;;;;27.00;49.02;96241.25;5036381;28;19925;-77
2022/06/03 10:20:36;;;;;;;;;;;;;;;27.04;45.07;96239.97;5037197;28;19920;-77
2022/06/03 10:23:02;;;;;;;;;;;;;;;27.00;45.83;96235.66;5034174;28;19921;-77
2022/06/03 10:25:31;;;;;;;;;;;;;;;27.01;47.20;96234.44;5034206;28;19928;-78
2022/06/03 10:28:02;;;;;;;;;;;;;;;27.06;48.68;96233.94;5034001;28;19921;-78
2022/06/03 10:30:30;;;;;;;;;;;;;;;27.24;45.74;96230.81;5032754;28;19947;-77
2022/06/03 10:32:57;;;;;;;;;;;;;;;27.18;44.62;96218.56;5033859;28;19928;-78
2022/06/03 10:35:27;;;;;;;;;;;;;;;27.19;44.35;96215.34;5033314;28;20001;-78
2022/06/03 10:37:55;;;;;;;;;;;;;;;27.28;47.99;96206.38;5034763;28;19964;-77
2022/06/03 10:40:24;;;;;;;;;;;;;;;27.41;47.93;96206.53;5033115;28;19920;-77
2022/06/03 10:42:54;;;;;;;;;;;;;;;27.30;45.25;96201.94;5034597;28;20311;-77
2022/06/03 10:45:25;;;;;;;;;;;;;;;27.30;45.71;96201.13;5034519;28;20012;-77
2022/06/03 10:47:52;;;;;;;;;;;;;;;27.31;43.95;96205.53;5034252;28;19921;-78
2022/06/03 10:50:27;;;;;;;;;;;;;;;27.33;43.69;96199.50;5033520;28;20300;-77
2022/06/03 11:01:29;;;;;;;;;;;;;;;27.49;47.20;96200.31;5033013;28;20075;-77
2022/06/03 11:03:57;;;;;;;;;;;;;;;27.47;45.50;96190.81;5033938;28;19925;-77
2022/06/03 11:06:26;;;;;;;;;;;;;;;27.54;47.91;96179.44;5042103;28;20283;-77
2022/06/03 11:08:54;;;;;;;;;;;;;;;27.62;45.50;96183.69;5051840;28;19927;-77
2022/06/03 11:11:31;;;;;;;;;;;;;;;27.71;45.00;96191.47;5033726;28;20362;-77
2022/06/03 11:13:57;;;;;;;;;;;;;;;27.70;43.71;96181.50;5034552;28;19971;-77
2022/06/03 11:16:25;;;;;;;;;;;;;;;27.79;48.90;96185.28;5033499;28;20332;-77
2022/06/03 11:18:52;;;;;;;;;;;;;;;27.75;45.11;96190.19;5033828;28;19984;-78
2022/06/03 11:21:20;;;;;;;;;;;;;;;27.64;46.79;96184.03;5032312;28;19996;-77
2022/06/03 11:23:48;;;;;;;;;;;;;;;27.49;44.45;96177.94;5034982;28;19931;-77
2022/06/03 11:26:14;;;;;;;;;;;;;;;27.35;45.14;96174.69;5033422;28;19936;-77
2022/06/03 11:28:43;;;;;;;;;;;;;;;27.21;45.75;96173.78;5033065;28;20347;-78
2022/06/03 11:31:12;;;;;;;;;;;;;;;27.21;44.86;96168.19;5032820;28;19928;-77
2022/06/03 11:33:42;;;;;;;;;;;;;;;27.28;48.06;96154.03;5033789;28;19928;-77
2022/06/03 11:36:12;;;;;;;;;;;;;;;27.30;47.65;96160.00;5043604;28;19921;-78
2022/06/03 11:38:41;;;;;;;;;;;;;;;27.26;45.94;96153.69;5057270;28;19921;-77
2022/06/03 11:41:10;;;;;;;;;;;;;;;27.29;46.19;96155.63;5036603;28;20288;-76
2022/06/03 11:43:41;;;;;;;;;;;;;;;27.28;45.40;96151.25;5038657;28;19921;-77
2022/06/03 11:46:10;;;;;;;;;;;;;;;27.37;46.23;96158.28;5036481;28;20004;-78
2022/06/03 11:48:38;;;;;;;;;;;;;;;27.46;45.57;96155.66;5035219;28;19921;-76
2022/06/03 11:51:07;;;;;;;;;;;;;;;27.40;47.13;96146.19;5034724;28;19921;-77
2022/06/03 11:53:36;;;;;;;;;;;;;;;27.43;47.01;96150.94;5038230;28;19986;-77
2022/06/03 11:56:04;;;;;;;;;;;;;;;27.48;44.82;96153.22;5044410;28;19920;-77
2022/06/03 11:58:40;;;;;;;;;;;;;;;27.46;45.00;96145.28;5057909;28;19921;-77
2022/06/03 12:01:12;;;;;;;;;;;;;;;27.48;45.37;96153.22;5045318;28;19999;-77
2022/06/03 12:03:42;;;;;;;;;;;;;;;27.56;47.63;96154.63;5034610;28;20568;-77
2022/06/03 12:06:11;;;;;;;;;;;;;;;27.47;45.34;96152.44;5034232;28;20368;-78
2022/06/03 12:08:45;;;;;;;;;;;;;;;27.39;45.42;96156.59;5035609;28;19956;-77
2022/06/03 12:13:14;;;;;;;;;;;;;;;27.38;46.12;96154.25;5036536;28;19925;-77
2022/06/03 12:14:26;;;;;;;;;;;;;;;27.42;45.36;96150.16;5036636;28;20025;-77
2022/06/03 12:16:54;;;;;;;;;;;;;;;27.37;46.08;96163.88;5032830;28;19971;-77
2022/06/03 12:19:34;;;;;;;;;;;;;;;27.29;45.12;96152.81;5030183;28;19929;-78
2022/06/03 12:22:16;;;;;;;;;;;;;;;27.31;47.74;96155.19;5031540;28;20372;-78
2022/06/03 12:24:46;;;;;;;;;;;;;;;27.16;45.06;96151.91;5031928;28;19929;-77
2022/06/03 12:27:16;;;;;;;;;;;;;;;27.19;47.41;96141.88;5029982;28;19932;-76
2022/06/03 12:29:46;;;;;;;;;;;;;;;27.18;48.17;96140.31;5029971;28;19921;-78
2022/06/03 12:32:14;;;;;;;;;;;;;;;27.19;48.99;96141.88;5031018;28;19925;-77
2022/06/03 12:34:41;;;;;;;;;;;;;;;27.11;47.61;96138.44;5034145;28;19921;-77
2022/06/03 12:37:22;;;;;;;;;;;;;;;27.12;47.98;96134.44;5033832;28;20412;-77
2022/06/03 12:39:57;;;;;;;;;;;;;;;27.02;48.13;96144.59;5037886;28;19929;-77
2022/06/03 12:42:38;;;;;;;;;;;;;;;26.93;46.25;96140.78;5034834;28;20295;-77
2022/06/03 12:45:26;;;;;;;;;;;;;;;27.01;46.47;96137.44;5033541;28;20438;-77
2022/06/03 12:47:55;;;;;;;;;;;;;;;26.99;46.04;96134.28;5016107;28;19929;-76
2022/06/03 12:50:25;;;;;;;;;;;;;;;26.95;45.74;96127.97;5003747;28;19928;-77
2022/06/03 12:52:54;;;;;;;;;;;;;;;26.78;44.63;96127.13;5015758;28;19922;-77
2022/06/03 12:55:25;;;;;;;;;;;;;;;26.85;46.54;96119.81;5027011;28;20016;-78
2022/06/03 12:57:55;;;;;;;;;;;;;;;26.87;46.23;96118.16;5033286;28;19944;-77
2022/06/03 13:00:27;;;;;;;;;;;;;;;26.89;46.10;96109.38;5043768;28;19920;-76
2022/06/03 13:02:55;;;;;;;;;;;;;;;26.92;47.55;96108.47;5039919;28;20261;-77
2022/06/03 13:05:26;;;;;;;;;;;;;;;26.87;46.02;96109.00;5037369;28;19928;-78
2022/06/03 13:07:58;;;;;;;;;;;;;;;26.87;45.70;96109.00;5038000;28;20261;-77
2022/06/03 13:10:54;;;;;;;;;;;;;;;26.82;45.99;96101.09;5036667;28;19921;-77
2022/06/03 13:13:24;;;;;;;;;;;;;;;26.77;45.06;96100.38;5036854;28;20507;-77
2022/06/03 13:15:52;;;;;;;;;;;;;;;26.70;43.82;96094.97;5036471;28;20284;-77
2022/06/03 13:18:36;;;;;;;;;;;;;;;26.68;44.41;96096.63;5035327;28;19921;-77
2022/06/03 13:21:28;;;;;;;;;;;;;;;26.69;45.56;96087.03;5035314;28;20009;-77
2022/06/03 13:23:57;;;;;;;;;;;;;;;26.62;45.42;96075.97;5034724;28;19920;-77
2022/06/03 13:26:42;;;;;;;;;;;;;;;26.68;48.12;96075.06;5033304;28;20088;-77
2022/06/03 13:29:09;;;;;;;;;;;;;;;26.64;47.15;96074.34;5035088;28;19921;-76
2022/06/03 13:31:57;;;;;;;;;;;;;;;26.63;46.42;96066.41;5035762;28;19920;-77
2022/06/03 13:34:38;;;;;;;;;;;;;;;26.51;43.81;96059.44;5037149;28;19921;-77
2022/06/03 13:37:23;;;;;;;;;;;;;;;26.42;43.46;96057.22;5036813;28;20012;-77
2022/06/03 13:40:18;;;;;;;;;;;;;;;26.40;46.19;96059.63;5035944;28;20376;-77
2022/06/03 13:43:00;;;;;;;;;;;;;;;26.35;46.66;96056.53;5036830;28;19925;-77
2022/06/03 13:45:45;;;;;;;;;;;;;;;26.33;46.30;96048.59;5034927;28;19921;-77
2022/06/03 13:48:15;;;;;;;;;;;;;;;26.29;46.36;96054.25;5034199;28;19928;-77
2022/06/03 13:50:42;;;;;;;;;;;;;;;26.31;47.42;96055.81;5034606;28;19933;-77
2022/06/03 13:53:12;;;;;;;;;;;;;;;26.26;46.61;96057.91;5033984;28;19921;-77
2022/06/03 13:55:52;;;;;;;;;;;;;;;26.21;46.93;96046.47;5033732;28;20407;-77
2022/06/03 13:58:23;;;;;;;;;;;;;;;26.22;47.82;96040.44;5033066;28;19921;-78
2022/06/03 14:00:54;;;;;;;;;;;;;;;26.20;48.71;96033.69;5034042;28;20005;-77
2022/06/03 14:03:23;;;;;;;;;;;;;;;26.18;49.08;96027.78;5033157;28;19928;-77